createdAt,value
2023-02-16T00:00:22.037Z,16.35
2023-02-16T00:02:49.883Z,14.73
2023-02-16T00:05:25.902Z,15.63
2023-02-16T00:07:54.624Z,16.73
2023-02-16T00:10:22.776Z,17.58
2023-02-16T00:13:09.347Z,15.77
2023-02-16T00:15:36.829Z,16.42
2023-02-16T00:18:15.083Z,16.23
2023-02-16T00:20:42.547Z,15.43
2023-02-16T00:23:09.980Z,16.60
2023-02-16T00:25:37.596Z,16.02
2023-02-16T00:28:10.655Z,16.33
2023-02-16T00:30:39.668Z,17.50
2023-02-16T00:33:19.671Z,15.15
2023-02-16T00:35:47.930Z,14.98
2023-02-16T00:38:16.865Z,16.60
2023-02-16T00:40:44.581Z,15.55
2023-02-16T00:43:28.161Z,16.17
2023-02-16T00:45:56.962Z,14.93
2023-02-16T00:48:24.643Z,14.80
2023-02-16T00:50:54.392Z,15.48
2023-02-16T00:53:21.879Z,15.38
2023-02-16T00:55:49.299Z,16.08
2023-02-16T00:58:29.933Z,16.55
2023-02-16T01:01:07.495Z,16.52
2023-02-16T01:03:35.569Z,16.60
2023-02-16T01:06:23.868Z,15.90
2023-02-16T01:09:12.917Z,16.42
2023-02-16T01:11:40.446Z,15.88
2023-02-16T01:14:12.709Z,16.00
2023-02-16T01:16:42.099Z,15.52
2023-02-16T01:19:12.304Z,15.65
2023-02-16T01:21:40.231Z,16.20
2023-02-16T01:24:08.262Z,14.88
2023-02-16T01:26:40.967Z,15.88
2023-02-16T01:29:14.986Z,16.40
2023-02-16T01:31:43.161Z,15.70
2023-02-16T01:34:11.238Z,16.45
2023-02-16T01:36:46.673Z,15.45
2023-02-16T01:39:19.304Z,16.77
2023-02-16T01:42:09.650Z,16.50
2023-02-16T01:45:03.448Z,14.45
2023-02-16T01:47:47.916Z,13.27
2023-02-16T01:50:43.400Z,13.25
2023-02-16T01:53:51.787Z,10.82
2023-02-16T01:56:43.552Z,9.75
2023-02-16T01:59:39.724Z,9.38
2023-02-16T02:02:34.898Z,8.77
2023-02-16T02:05:37.809Z,9.13
2023-02-16T02:08:20.301Z,9.57
2023-02-16T02:11:14.727Z,10.80
2023-02-16T02:13:50.015Z,13.20
2023-02-16T02:16:21.503Z,14.02
2023-02-16T02:18:49.296Z,13.23
2023-02-16T02:22:14.367Z,9.23
2023-02-16T02:24:56.718Z,7.57
2023-02-16T02:27:26.966Z,7.95
2023-02-16T02:30:38.421Z,8.95
2023-02-16T02:33:20.831Z,9.00
2023-02-16T02:36:26.910Z,8.73
2023-02-16T02:39:17.383Z,13.40
2023-02-16T02:42:06.598Z,14.48
2023-02-16T02:44:50.469Z,15.82
2023-02-16T02:47:18.572Z,16.23
2023-02-16T02:49:53.329Z,16.52
2023-02-16T02:52:22.617Z,17.33
2023-02-16T02:55:09.910Z,18.27
2023-02-16T02:58:06.376Z,16.48
2023-02-16T03:00:44.552Z,16.83
2023-02-16T03:03:37.639Z,17.70
2023-02-16T03:06:18.409Z,16.75
2023-02-16T03:08:50.169Z,16.15
2023-02-16T03:11:48.259Z,15.60
2023-02-16T03:14:26.823Z,16.33
2023-02-16T03:17:29.297Z,15.48
2023-02-16T03:20:17.987Z,14.32
2023-02-16T03:23:04.814Z,13.13
2023-02-16T03:25:56.220Z,11.32
2023-02-16T03:28:46.194Z,11.40
2023-02-16T03:31:23.512Z,9.73
2023-02-16T03:33:55.234Z,6.53
2023-02-16T03:36:29.824Z,6.03
2023-02-16T03:38:58.442Z,6.43
2023-02-16T03:41:27.084Z,6.20
2023-02-16T03:43:54.607Z,6.22
2023-02-16T03:46:22.109Z,4.72
2023-02-16T03:48:49.680Z,5.80
2023-02-16T03:51:17.186Z,5.93
2023-02-16T03:53:44.852Z,4.88
2023-02-16T03:56:12.369Z,4.97
2023-02-16T03:58:39.873Z,7.40
2023-02-16T04:01:07.452Z,6.80
2023-02-16T04:03:35.075Z,5.80
2023-02-16T04:06:02.507Z,7.72
2023-02-16T04:08:30.162Z,6.75
2023-02-16T04:10:58.031Z,8.45
2023-02-16T04:13:25.476Z,10.30
2023-02-16T04:15:53.037Z,9.40
2023-02-16T04:18:20.546Z,8.27
2023-02-16T04:20:47.912Z,10.13
2023-02-16T04:23:15.466Z,9.93
2023-02-16T04:25:43.047Z,11.43
2023-02-16T04:28:10.581Z,11.20
2023-02-16T04:30:38.285Z,11.93
2023-02-16T04:33:05.834Z,13.88
2023-02-16T04:35:33.343Z,13.93
2023-02-16T04:38:00.848Z,13.93
2023-02-16T04:40:28.318Z,12.15
2023-02-16T04:42:55.902Z,14.75
2023-02-16T04:45:23.337Z,14.18
2023-02-16T04:47:50.872Z,12.65
2023-02-16T04:50:18.311Z,13.52
2023-02-16T04:52:45.858Z,13.63
2023-02-16T04:55:13.242Z,13.30
2023-02-16T04:57:41.709Z,13.98
2023-02-16T05:00:12.042Z,11.35
2023-02-16T05:02:39.709Z,10.85
2023-02-16T05:05:07.736Z,10.10
2023-02-16T05:07:36.321Z,9.85
2023-02-16T05:10:04.666Z,10.80
2023-02-16T05:12:51.092Z,9.70
2023-02-16T05:15:18.805Z,9.88
2023-02-16T05:17:46.522Z,10.20
2023-02-16T05:20:14.308Z,8.73
2023-02-16T05:22:43.652Z,9.63
2023-02-16T05:25:11.164Z,9.95
2023-02-16T05:27:38.688Z,8.18
2023-02-16T05:30:06.724Z,9.65
2023-02-16T05:32:34.133Z,7.65
2023-02-16T05:35:01.785Z,8.50
2023-02-16T05:37:29.257Z,7.15
2023-02-16T05:39:56.971Z,7.32
2023-02-16T05:42:24.510Z,7.82
2023-02-16T05:44:51.928Z,7.32
2023-02-16T05:47:19.370Z,6.80
2023-02-16T05:53:53.033Z,9.30
2023-02-16T05:56:21.321Z,8.75
2023-02-16T05:58:48.938Z,9.43
2023-02-16T06:01:16.623Z,9.63
2023-02-16T06:03:44.480Z,9.98
2023-02-16T06:06:12.130Z,10.18
2023-02-16T06:08:39.636Z,9.75
2023-02-16T06:11:27.638Z,9.48
2023-02-16T06:13:58.247Z,9.27
2023-02-16T06:16:27.233Z,9.07
2023-02-16T06:18:55.327Z,9.27
2023-02-16T06:21:23.769Z,10.75
2023-02-16T06:23:51.552Z,9.52
2023-02-16T06:26:19.227Z,10.25
2023-02-16T06:28:46.678Z,9.48
2023-02-16T06:31:14.766Z,9.98
2023-02-16T06:33:43.505Z,9.20
2023-02-16T06:36:11.847Z,8.93
2023-02-16T06:38:39.708Z,9.48
2023-02-16T06:41:07.602Z,10.07
2023-02-16T06:43:35.314Z,11.75
2023-02-16T06:46:02.924Z,12.00
2023-02-16T06:48:30.709Z,11.98
2023-02-16T06:50:58.374Z,8.38
2023-02-16T06:53:25.761Z,8.20
2023-02-16T06:55:53.358Z,7.93
2023-02-16T06:58:20.774Z,7.70
2023-02-16T07:00:48.368Z,8.40
2023-02-16T07:03:16.140Z,7.68
2023-02-16T07:05:44.241Z,7.75
2023-02-16T07:08:11.649Z,9.27
2023-02-16T07:10:50.224Z,11.40
2023-02-16T07:13:18.014Z,7.95
2023-02-16T07:15:45.936Z,7.30
2023-02-16T07:18:13.383Z,9.02
2023-02-16T07:20:40.790Z,11.40
2023-02-16T07:23:08.292Z,11.55
2023-02-16T07:25:37.092Z,10.13
2023-02-16T07:28:04.785Z,9.73
2023-02-16T07:30:32.240Z,9.25
2023-02-16T07:33:02.510Z,10.95
2023-02-16T07:35:30.033Z,10.07
2023-02-16T07:37:57.532Z,12.23
2023-02-16T07:40:25.299Z,13.35
2023-02-16T07:42:52.741Z,13.45
2023-02-16T07:45:20.177Z,14.10
2023-02-16T07:47:47.597Z,14.55
2023-02-16T07:50:15.130Z,14.38
2023-02-16T07:52:42.655Z,14.27
2023-02-16T07:55:11.532Z,14.57
2023-02-16T07:57:40.199Z,14.60
2023-02-16T08:00:08.606Z,12.95
2023-02-16T08:02:41.921Z,12.70
2023-02-16T08:05:09.918Z,13.48
2023-02-16T08:07:37.405Z,14.50
2023-02-16T08:10:06.031Z,13.90
2023-02-16T08:12:33.540Z,13.02
2023-02-16T08:15:01.037Z,12.45
2023-02-16T08:17:28.454Z,12.63
2023-02-16T08:19:55.993Z,12.35
2023-02-16T08:22:24.084Z,12.73
2023-02-16T08:24:51.595Z,12.57
2023-02-16T08:27:19.077Z,13.27
2023-02-16T08:29:46.704Z,12.63
2023-02-16T08:32:14.774Z,12.80
2023-02-16T08:34:43.480Z,12.70
2023-02-16T08:37:13.166Z,14.23
2023-02-16T08:39:41.649Z,14.32
2023-02-16T08:42:13.420Z,13.40
2023-02-16T08:44:42.520Z,14.07
2023-02-16T08:47:11.102Z,13.85
2023-02-16T08:49:39.522Z,15.25
2023-02-16T08:52:07.119Z,13.63
2023-02-16T08:54:34.772Z,15.02
2023-02-16T08:57:03.205Z,15.13
2023-02-16T08:59:31.375Z,16.05
2023-02-16T09:02:00.135Z,14.43
2023-02-16T09:04:29.465Z,15.07
2023-02-16T09:06:58.544Z,15.38
2023-02-16T09:09:27.536Z,17.23
2023-02-16T09:11:55.086Z,16.02
2023-02-16T09:14:23.193Z,16.65
2023-02-16T09:16:50.832Z,17.98
2023-02-16T09:19:21.008Z,19.42
2023-02-16T09:21:51.130Z,19.00
2023-02-16T09:24:19.276Z,17.58
2023-02-16T09:26:49.871Z,16.27
2023-02-16T09:29:18.329Z,16.30
2023-02-16T09:31:46.451Z,16.92
2023-02-16T09:34:14.028Z,17.08
2023-02-16T09:36:41.621Z,18.33
2023-02-16T09:39:09.188Z,17.05
2023-02-16T09:42:06.736Z,18.10
2023-02-16T09:44:45.099Z,16.90
2023-02-16T09:47:33.488Z,17.27
2023-02-16T09:50:04.648Z,17.75
2023-02-16T09:52:37.178Z,18.20
2023-02-16T09:55:20.843Z,18.02
2023-02-16T09:58:08.224Z,18.70
2023-02-16T10:00:53.994Z,18.00
2023-02-16T10:03:49.469Z,18.90
2023-02-16T10:06:34.193Z,19.70
2023-02-16T10:09:09.894Z,18.55
2023-02-16T10:11:49.192Z,19.90
2023-02-16T10:14:31.893Z,18.30
2023-02-16T10:17:24.165Z,18.13
2023-02-16T10:20:14.036Z,18.65
2023-02-16T10:23:15.752Z,18.52
2023-02-16T10:25:55.709Z,17.83
2023-02-16T10:28:43.300Z,18.55
2023-02-16T10:31:18.577Z,18.75
2023-02-16T10:33:58.797Z,19.60
2023-02-16T10:36:38.316Z,19.88
2023-02-16T10:39:27.951Z,19.45
2023-02-16T10:42:24.394Z,20.08
2023-02-16T10:45:02.220Z,19.83
2023-02-16T10:47:42.110Z,20.23
2023-02-16T10:50:30.147Z,19.13
2023-02-16T10:53:06.755Z,19.30
2023-02-16T10:55:34.346Z,20.17
2023-02-16T10:58:02.526Z,20.05
2023-02-16T11:00:50.302Z,19.75
2023-02-16T11:03:21.488Z,19.70
2023-02-16T11:05:49.222Z,19.13
2023-02-16T11:08:17.679Z,17.75
2023-02-16T11:10:48.357Z,19.90
2023-02-16T11:13:37.661Z,19.42
2023-02-16T11:16:11.156Z,18.50
2023-02-16T11:18:45.415Z,18.48
2023-02-16T11:21:13.441Z,18.15
2023-02-16T11:23:57.499Z,17.27
2023-02-16T11:28:53.780Z,19.02
2023-02-16T11:31:33.424Z,20.85
2023-02-16T11:34:08.837Z,18.42
2023-02-16T11:36:41.450Z,18.73
2023-02-16T11:39:20.025Z,21.20
2023-02-16T11:41:58.564Z,22.88
2023-02-16T11:44:36.056Z,22.45
2023-02-16T11:47:08.798Z,21.92
2023-02-16T11:49:40.400Z,21.55
2023-02-16T11:52:29.657Z,22.90
2023-02-16T11:54:58.971Z,22.90
2023-02-16T11:57:32.240Z,23.10
2023-02-16T12:00:02.201Z,21.35
2023-02-16T12:02:52.217Z,21.13
2023-02-16T12:05:26.267Z,22.13
2023-02-16T12:07:53.777Z,22.60
2023-02-16T12:10:38.472Z,23.42
2023-02-16T12:13:25.886Z,23.17
2023-02-16T12:15:59.062Z,22.75
2023-02-16T12:18:53.866Z,24.75
2023-02-16T12:21:39.847Z,22.88
2023-02-16T12:24:23.895Z,22.27
2023-02-16T12:29:54.003Z,22.73
2023-02-16T12:32:43.139Z,23.58
2023-02-16T12:35:48.177Z,23.33
2023-02-16T12:38:47.300Z,22.85
2023-02-16T12:41:46.144Z,23.15
2023-02-16T12:44:25.188Z,23.58
2023-02-16T12:47:00.955Z,22.80
2023-02-16T12:49:36.711Z,24.35
2023-02-16T12:52:12.435Z,23.33
2023-02-16T12:54:55.530Z,23.42
2023-02-16T12:57:26.324Z,24.33
2023-02-16T13:00:04.304Z,24.15
2023-02-16T13:02:40.662Z,23.50
2023-02-16T13:05:18.301Z,23.55
2023-02-16T13:07:49.209Z,23.40
2023-02-16T13:10:54.918Z,23.95
2023-02-16T13:13:27.345Z,23.95
2023-02-16T13:16:40.076Z,25.27
2023-02-16T13:19:12.607Z,23.25
2023-02-16T13:21:58.935Z,24.58
2023-02-16T13:24:46.993Z,24.02
2023-02-16T13:27:36.047Z,27.08
2023-02-16T13:30:36.898Z,26.08
2023-02-16T13:33:37.607Z,25.20
2023-02-16T13:36:28.198Z,24.48
2023-02-16T13:39:24.834Z,26.10
2023-02-16T13:41:55.731Z,25.38
2023-02-16T13:44:28.245Z,24.13
2023-02-16T13:46:56.845Z,24.88
2023-02-16T13:49:40.394Z,24.58
2023-02-16T13:52:08.994Z,23.98
2023-02-16T13:54:40.268Z,24.05
2023-02-16T13:57:14.670Z,25.50
2023-02-16T13:59:58.443Z,24.27
2023-02-16T14:02:54.611Z,26.02
2023-02-16T14:05:26.344Z,25.80
2023-02-16T14:08:15.141Z,25.25
2023-02-16T14:10:53.278Z,25.30
2023-02-16T14:13:39.093Z,26.30
2023-02-16T14:16:12.158Z,25.33
2023-02-16T14:18:43.181Z,23.23
2023-02-16T14:21:32.286Z,23.17
2023-02-16T14:24:03.274Z,23.63
2023-02-16T14:26:32.673Z,22.58
2023-02-16T14:29:12.651Z,24.08
2023-02-16T14:31:51.155Z,23.52
2023-02-16T14:34:26.897Z,24.58
2023-02-16T14:37:19.193Z,23.30
2023-02-16T14:40:06.847Z,24.25
2023-02-16T14:42:35.955Z,21.70
2023-02-16T14:45:30.354Z,17.45
2023-02-16T14:51:10.029Z,13.00
2023-02-16T14:54:22.147Z,21.63
2023-02-16T14:56:51.974Z,16.50
2023-02-16T14:59:28.444Z,15.32
2023-02-16T15:01:56.514Z,19.55
2023-02-16T15:04:29.231Z,25.05
2023-02-16T15:06:59.635Z,23.27
2023-02-16T15:09:31.380Z,21.35
2023-02-16T15:12:21.875Z,21.63
2023-02-16T15:14:59.811Z,17.45
2023-02-16T15:17:38.240Z,14.15
2023-02-16T15:20:25.537Z,12.75
2023-02-16T15:22:56.161Z,12.68
2023-02-16T15:25:33.977Z,12.75
2023-02-16T15:28:10.711Z,13.32
2023-02-16T15:30:41.303Z,15.93
2023-02-16T15:33:26.845Z,22.60
2023-02-16T15:36:09.051Z,22.40
2023-02-16T15:38:39.853Z,21.17
2023-02-16T15:41:24.476Z,18.35
2023-02-16T15:43:52.353Z,15.60
2023-02-16T15:46:41.265Z,14.00
2023-02-16T15:49:22.466Z,14.68
2023-02-16T15:51:54.091Z,16.77
2023-02-16T15:54:28.622Z,13.77
2023-02-16T15:57:01.132Z,12.18
2023-02-16T15:59:35.791Z,11.80
2023-02-16T16:02:17.568Z,12.73
2023-02-16T16:04:55.365Z,12.75
2023-02-16T16:07:28.343Z,13.77
2023-02-16T16:10:00.596Z,13.40
2023-02-16T16:12:28.988Z,11.48
2023-02-16T16:15:02.143Z,13.02
2023-02-16T16:17:33.300Z,12.52
2023-02-16T16:20:30.774Z,12.38
2023-02-16T16:23:14.181Z,10.70
2023-02-16T16:25:47.527Z,10.52
2023-02-16T16:28:34.941Z,11.23
2023-02-16T16:31:15.792Z,10.00
2023-02-16T16:33:59.974Z,10.05
2023-02-16T16:36:32.061Z,9.25
2023-02-16T16:39:11.448Z,9.65
2023-02-16T16:41:40.638Z,10.35
2023-02-16T16:44:13.474Z,21.85
2023-02-16T16:46:41.151Z,33.00
2023-02-16T16:49:15.936Z,73.32
2023-02-16T16:51:44.105Z,25.25
2023-02-16T16:54:49.116Z,23.00
2023-02-16T16:57:21.502Z,10.65
2023-02-16T16:59:48.971Z,11.50
2023-02-16T17:02:16.564Z,17.20
2023-02-16T17:04:44.222Z,27.58
2023-02-16T17:07:11.680Z,15.20
2023-02-16T17:09:39.229Z,13.52
2023-02-16T17:12:07.268Z,10.27
2023-02-16T17:14:34.860Z,9.80
2023-02-16T17:17:02.337Z,8.98
2023-02-16T17:19:31.025Z,8.65
2023-02-16T17:21:58.462Z,8.77
2023-02-16T17:24:26.842Z,8.93
2023-02-16T17:26:54.231Z,8.63
2023-02-16T17:29:22.747Z,8.90
2023-02-16T17:31:50.805Z,9.13
2023-02-16T17:34:18.438Z,9.48
2023-02-16T17:36:45.927Z,9.43
2023-02-16T17:39:13.579Z,9.52
2023-02-16T17:41:41.120Z,9.52
2023-02-16T17:44:08.628Z,8.75
2023-02-16T17:46:36.053Z,8.38
2023-02-16T17:49:03.613Z,8.05
2023-02-16T17:51:32.350Z,8.15
2023-02-16T17:54:00.124Z,7.63
2023-02-16T17:56:27.557Z,8.40
2023-02-16T17:58:55.130Z,8.68
2023-02-16T18:01:22.752Z,8.82
2023-02-16T18:03:50.697Z,7.88
2023-02-16T18:06:20.877Z,8.02
2023-02-16T18:08:48.555Z,8.55
2023-02-16T18:11:16.089Z,8.18
2023-02-16T18:13:43.715Z,8.30
2023-02-16T18:16:18.944Z,8.40
2023-02-16T18:18:46.437Z,8.10
2023-02-16T18:21:14.107Z,8.95
2023-02-16T18:23:42.107Z,8.55
2023-02-16T18:26:13.187Z,7.93
2023-02-16T18:28:40.757Z,6.93
2023-02-16T18:31:08.641Z,6.80
2023-02-16T18:33:36.434Z,6.88
2023-02-16T18:36:05.735Z,7.38
2023-02-16T18:38:33.506Z,6.90
2023-02-16T18:41:01.035Z,6.28
2023-02-16T18:43:28.544Z,6.07
2023-02-16T18:45:56.018Z,6.88
2023-02-16T18:48:23.618Z,7.47
2023-02-16T18:50:51.066Z,7.82
2023-02-16T18:53:18.633Z,7.65
2023-02-16T18:55:46.055Z,9.00
2023-02-16T18:58:15.073Z,13.48
2023-02-16T19:00:42.823Z,9.25
2023-02-16T19:03:10.449Z,8.23
2023-02-16T19:05:37.873Z,9.38
2023-02-16T19:08:06.247Z,10.95
2023-02-16T19:10:33.961Z,8.60
2023-02-16T19:13:02.290Z,7.47
2023-02-16T19:15:29.994Z,12.25
2023-02-16T19:17:57.572Z,8.85
2023-02-16T19:20:25.718Z,8.15
2023-02-16T19:22:56.265Z,9.38
2023-02-16T19:25:24.024Z,8.48
2023-02-16T19:27:51.449Z,8.40
2023-02-16T19:30:21.717Z,8.82
2023-02-16T19:32:49.297Z,8.80
2023-02-16T19:35:16.837Z,9.73
2023-02-16T19:37:44.388Z,10.05
2023-02-16T19:40:12.658Z,11.52
2023-02-16T19:42:40.232Z,12.05
2023-02-16T19:45:08.620Z,11.00
2023-02-16T19:47:36.150Z,11.35
2023-02-16T19:50:03.936Z,10.98
2023-02-16T19:52:31.460Z,11.20
2023-02-16T19:54:58.980Z,10.70
2023-02-16T19:57:26.492Z,11.48
2023-02-16T19:59:53.957Z,11.45
2023-02-16T20:02:21.571Z,11.73
2023-02-16T20:04:49.232Z,13.05
2023-02-16T20:07:16.777Z,12.65
2023-02-16T20:09:44.190Z,12.50
2023-02-16T20:12:13.538Z,12.77
2023-02-16T20:14:41.020Z,13.57
2023-02-16T20:17:08.536Z,13.45
2023-02-16T20:19:35.981Z,13.38
2023-02-16T20:22:03.521Z,13.35
2023-02-16T20:24:30.978Z,14.85
2023-02-16T20:26:58.555Z,13.77
2023-02-16T20:29:25.992Z,14.13
2023-02-16T20:31:56.573Z,14.93
2023-02-16T20:34:27.453Z,14.98
2023-02-16T20:36:55.586Z,14.30
2023-02-16T20:39:23.745Z,15.25
2023-02-16T20:41:51.315Z,16.63
2023-02-16T20:44:18.901Z,15.52
2023-02-16T20:46:46.409Z,14.57
2023-02-16T20:49:14.599Z,14.98
2023-02-16T20:51:42.839Z,14.95
2023-02-16T20:54:11.722Z,16.02
2023-02-16T20:56:39.419Z,15.07
2023-02-16T20:59:06.872Z,15.68
2023-02-16T21:01:51.940Z,14.48
2023-02-16T21:04:20.472Z,15.55
2023-02-16T21:06:48.218Z,14.32
2023-02-16T21:09:16.308Z,14.15
2023-02-16T21:11:44.076Z,13.93
2023-02-16T21:14:12.307Z,13.65
2023-02-16T21:16:41.195Z,13.77
2023-02-16T21:19:20.968Z,13.90
2023-02-16T21:21:51.435Z,13.40
2023-02-16T21:24:19.002Z,13.50
2023-02-16T21:26:46.499Z,13.73
2023-02-16T21:29:14.157Z,13.60
2023-02-16T21:31:41.781Z,12.27
2023-02-16T21:34:09.398Z,12.30
2023-02-16T21:36:38.300Z,11.32
2023-02-16T21:39:06.309Z,10.55
2023-02-16T21:41:33.839Z,10.82
2023-02-16T21:44:11.438Z,9.90
2023-02-16T21:46:42.029Z,9.27
2023-02-16T21:49:13.176Z,9.45
2023-02-16T21:51:42.288Z,11.07
2023-02-16T21:54:14.781Z,11.20
2023-02-16T21:56:50.361Z,10.90
2023-02-16T21:59:20.103Z,9.95
2023-02-16T22:01:51.181Z,11.55
2023-02-16T22:04:22.835Z,11.18
2023-02-16T22:06:51.572Z,11.35
2023-02-16T22:09:23.564Z,11.13
2023-02-16T22:11:51.915Z,10.45
2023-02-16T22:14:19.782Z,10.70
2023-02-16T22:16:48.195Z,11.05
2023-02-16T22:19:18.105Z,10.75
2023-02-16T22:21:47.255Z,10.88
2023-02-16T22:24:17.141Z,10.23
2023-02-16T22:26:47.825Z,10.05
2023-02-16T22:29:15.954Z,10.23
2023-02-16T22:31:45.680Z,10.13
2023-02-16T22:34:16.262Z,10.55
2023-02-16T22:36:43.846Z,10.00
2023-02-16T22:39:13.733Z,10.63
2023-02-16T22:41:41.393Z,9.05
2023-02-16T22:44:11.016Z,9.38
2023-02-16T22:46:38.900Z,9.05
2023-02-16T22:49:06.329Z,9.05
2023-02-16T22:51:33.933Z,8.80
2023-02-16T22:54:02.242Z,8.75
2023-02-16T22:56:31.275Z,9.77
2023-02-16T22:58:59.990Z,9.38
2023-02-16T23:01:30.320Z,10.02
2023-02-16T23:04:00.474Z,9.88
2023-02-16T23:06:34.344Z,9.73
2023-02-16T23:11:32.832Z,9.02
2023-02-16T23:14:00.362Z,10.35
2023-02-16T23:16:28.626Z,10.48
2023-02-16T23:18:58.094Z,8.95
2023-02-16T23:21:29.616Z,9.80
2023-02-16T23:23:58.415Z,9.75
2023-02-16T23:26:28.081Z,9.55
2023-02-16T23:28:58.364Z,10.68
2023-02-16T23:31:26.252Z,10.02
2023-02-16T23:33:56.235Z,9.80
2023-02-16T23:36:23.853Z,10.35
2023-02-16T23:38:51.247Z,9.80
2023-02-16T23:41:19.046Z,10.48
2023-02-16T23:43:46.519Z,9.50
2023-02-16T23:46:14.007Z,9.32
2023-02-16T23:48:41.464Z,9.95
2023-02-16T23:51:11.727Z,9.18
2023-02-16T23:53:39.914Z,10.40
2023-02-16T23:56:24.511Z,10.18
2023-02-16T23:58:52.705Z,9.75
